sensor_id;sensor_type;location;lat;lon;timestamp;pressure;altitude;pressure_sealevel;temperature;humidity
40730;BME280;26418;50.070;8.436;2022-12-19T00:01:04;101073.00;;;-3.04;86.59
40730;BME280;26418;50.070;8.436;2022-12-19T00:03:30;101069.97;;;-3.01;86.62
40730;BME280;26418;50.070;8.436;2022-12-19T00:05:55;101062.03;;;-3.01;86.39
40730;BME280;26418;50.070;8.436;2022-12-19T00:08:24;101066.53;;;-3.01;85.86
40730;BME280;26418;50.070;8.436;2022-12-19T00:10:54;101059.31;;;-3.07;86.04
40730;BME280;26418;50.070;8.436;2022-12-19T00:13:20;101065.53;;;-3.00;85.73
40730;BME280;26418;50.070;8.436;2022-12-19T00:15:46;101067.19;;;-2.99;85.40
40730;BME280;26418;50.070;8.436;2022-12-19T00:18:11;101058.84;;;-2.96;85.98
40730;BME280;26418;50.070;8.436;2022-12-19T00:20:36;101057.84;;;-2.95;86.11
40730;BME280;26418;50.070;8.436;2022-12-19T00:23:01;101049.16;;;-2.89;85.88
40730;BME280;26418;50.070;8.436;2022-12-19T00:25:27;101049.16;;;-2.89;85.59
40730;BME280;26418;50.070;8.436;2022-12-19T00:27:52;101052.19;;;-2.92;85.60
40730;BME280;26418;50.070;8.436;2022-12-19T00:30:17;101045.63;;;-2.81;85.37
40730;BME280;26418;50.070;8.436;2022-12-19T00:32:43;101041.59;;;-2.77;84.66
40730;BME280;26418;50.070;8.436;2022-12-19T00:35:08;101044.72;;;-2.73;84.94
40730;BME280;26418;50.070;8.436;2022-12-19T00:37:34;101039.22;;;-2.72;84.35
40730;BME280;26418;50.070;8.436;2022-12-19T00:39:59;101041.69;;;-2.70;84.87
40730;BME280;26418;50.070;8.436;2022-12-19T00:42:24;101027.25;;;-2.67;84.37
40730;BME280;26418;50.070;8.436;2022-12-19T00:44:49;101024.78;;;-2.69;84.31
40730;BME280;26418;50.070;8.436;2022-12-19T00:47:15;101028.09;;;-2.67;84.56
40730;BME280;26418;50.070;8.436;2022-12-19T00:49:40;101027.25;;;-2.67;84.49
40730;BME280;26418;50.070;8.436;2022-12-19T00:52:05;101039.03;;;-2.70;84.18
40730;BME280;26418;50.070;8.436;2022-12-19T00:54:31;101047.38;;;-2.73;84.92
40730;BME280;26418;50.070;8.436;2022-12-19T00:56:56;101037.56;;;-2.73;84.46
40730;BME280;26418;50.070;8.436;2022-12-19T00:59:21;101034.38;;;-2.68;84.42
40730;BME280;26418;50.070;8.436;2022-12-19T01:01:47;101021.59;;;-2.79;84.51
40730;BME280;26418;50.070;8.436;2022-12-19T01:04:13;101024.63;;;-2.82;84.24
40730;BME280;26418;50.070;8.436;2022-12-19T01:06:39;101027.53;;;-2.77;84.33
40730;BME280;26418;50.070;8.436;2022-12-19T01:09:04;101025.53;;;-2.75;84.60
40730;BME280;26418;50.070;8.436;2022-12-19T01:11:29;101029.72;;;-2.81;83.84
40730;BME280;26418;50.070;8.436;2022-12-19T01:14:14;101031.19;;;-2.78;84.55
40730;BME280;26418;50.070;8.436;2022-12-19T01:16:39;101021.44;;;-2.78;84.58
40730;BME280;26418;50.070;8.436;2022-12-19T01:19:05;101010.84;;;-2.78;84.66
40730;BME280;26418;50.070;8.436;2022-12-19T01:21:32;101028.88;;;-2.66;84.68
40730;BME280;26418;50.070;8.436;2022-12-19T01:23:57;101015.47;;;-2.65;84.73
40730;BME280;26418;50.070;8.436;2022-12-19T01:26:22;101009.34;;;-2.65;84.08
40730;BME280;26418;50.070;8.436;2022-12-19T01:28:48;101020.31;;;-2.69;84.46
40730;BME280;26418;50.070;8.436;2022-12-19T01:31:13;101029.88;;;-2.67;84.90
40730;BME280;26418;50.070;8.436;2022-12-19T01:33:38;101027.78;;;-2.72;84.76
40730;BME280;26418;50.070;8.436;2022-12-19T01:36:05;101030.63;;;-2.74;85.30
40730;BME280;26418;50.070;8.436;2022-12-19T01:38:33;101016.75;;;-2.76;86.02
40730;BME280;26418;50.070;8.436;2022-12-19T01:40:59;101024.44;;;-2.66;86.56
40730;BME280;26418;50.070;8.436;2022-12-19T01:43:28;101010.53;;;-2.53;86.84
40730;BME280;26418;50.070;8.436;2022-12-19T01:45:59;101012.22;;;-2.45;86.03
40730;BME280;26418;50.070;8.436;2022-12-19T01:48:37;101013.13;;;-2.38;86.06
40730;BME280;26418;50.070;8.436;2022-12-19T01:51:06;101006.81;;;-2.37;86.18
40730;BME280;26418;50.070;8.436;2022-12-19T01:53:44;100989.28;;;-2.38;85.18
40730;BME280;26418;50.070;8.436;2022-12-19T01:56:11;100992.47;;;-2.43;85.37
40730;BME280;26418;50.070;8.436;2022-12-19T01:58:39;100984.47;;;-2.49;85.59
40730;BME280;26418;50.070;8.436;2022-12-19T02:01:06;100995.06;;;-2.49;86.46
40730;BME280;26418;50.070;8.436;2022-12-19T02:03:32;100987.84;;;-2.56;87.20
40730;BME280;26418;50.070;8.436;2022-12-19T02:05:59;100995.53;;;-2.46;88.13
40730;BME280;26418;50.070;8.436;2022-12-19T02:08:25;100985.72;;;-2.45;87.68
40730;BME280;26418;50.070;8.436;2022-12-19T02:10:51;100987.63;;;-2.39;87.14
40730;BME280;26418;50.070;8.436;2022-12-19T02:13:17;100979.31;;;-2.36;87.37
40730;BME280;26418;50.070;8.436;2022-12-19T02:15:54;100973.38;;;-2.38;86.92
40730;BME280;26418;50.070;8.436;2022-12-19T02:21:34;100983.25;;;-2.32;87.63
40730;BME280;26418;50.070;8.436;2022-12-19T02:24:10;100976.31;;;-2.33;87.92
40730;BME280;26418;50.070;8.436;2022-12-19T02:26:56;100966.50;;;-2.32;87.47
40730;BME280;26418;50.070;8.436;2022-12-19T02:34:50;100975.84;;;-2.37;87.77
40730;BME280;26418;50.070;8.436;2022-12-19T02:37:23;100975.66;;;-2.35;88.35
40730;BME280;26418;50.070;8.436;2022-12-19T02:42:38;100981.41;;;-2.31;88.31
40730;BME280;26418;50.070;8.436;2022-12-19T02:45:07;100979.84;;;-2.26;88.61
40730;BME280;26418;50.070;8.436;2022-12-19T02:47:34;100962.72;;;-2.23;88.38
40730;BME280;26418;50.070;8.436;2022-12-19T02:50:01;100938.63;;;-2.28;88.07
40730;BME280;26418;50.070;8.436;2022-12-19T02:54:55;100949.03;;;-2.48;87.64
40730;BME280;26418;50.070;8.436;2022-12-19T03:01:17;100950.06;;;-2.49;88.42
40730;BME280;26418;50.070;8.436;2022-12-19T03:11:01;100951.13;;;-2.22;88.83
40730;BME280;26418;50.070;8.436;2022-12-19T03:15:57;100934.53;;;-2.09;88.13
40730;BME280;26418;50.070;8.436;2022-12-19T03:18:23;100944.75;;;-2.06;87.45
40730;BME280;26418;50.070;8.436;2022-12-19T03:20:54;100945.13;;;-2.09;87.53
40730;BME280;26418;50.070;8.436;2022-12-19T03:23:23;100936.09;;;-2.15;87.94
40730;BME280;26418;50.070;8.436;2022-12-19T03:25:51;100943.03;;;-2.14;88.00
40730;BME280;26418;50.070;8.436;2022-12-19T03:28:26;100945.69;;;-2.14;88.17
40730;BME280;26418;50.070;8.436;2022-12-19T03:30:55;100933.25;;;-2.13;88.40
40730;BME280;26418;50.070;8.436;2022-12-19T03:33:24;100941.75;;;-2.18;87.75
40730;BME280;26418;50.070;8.436;2022-12-19T03:35:53;100943.41;;;-2.17;88.49
40730;BME280;26418;50.070;8.436;2022-12-19T03:38:21;100933.16;;;-2.27;89.07
40730;BME280;26418;50.070;8.436;2022-12-19T03:40:47;100940.97;;;-2.18;89.12
40730;BME280;26418;50.070;8.436;2022-12-19T03:43:20;100946.47;;;-2.20;89.48
40730;BME280;26418;50.070;8.436;2022-12-19T03:46:00;100943.25;;;-2.15;89.02
40730;BME280;26418;50.070;8.436;2022-12-19T03:54:22;100941.63;;;-2.10;88.91
40730;BME280;26418;50.070;8.436;2022-12-19T03:56:40;100936.34;;;-2.10;88.94
40730;BME280;26418;50.070;8.436;2022-12-19T03:59:45;100943.72;;;-2.05;89.58
40730;BME280;26418;50.070;8.436;2022-12-19T04:02:14;100918.63;;;-2.09;89.91
40730;BME280;26418;50.070;8.436;2022-12-19T04:04:52;100919.06;;;-2.06;89.62
40730;BME280;26418;50.070;8.436;2022-12-19T04:07:18;100919.25;;;-2.07;89.42
40730;BME280;26418;50.070;8.436;2022-12-19T04:10:03;100918.69;;;-2.02;89.70
40730;BME280;26418;50.070;8.436;2022-12-19T04:12:38;100920.94;;;-1.99;89.11
40730;BME280;26418;50.070;8.436;2022-12-19T04:18:02;100926.63;;;-2.02;89.34
40730;BME280;26418;50.070;8.436;2022-12-19T04:20:34;100923.53;;;-2.06;89.72
40730;BME280;26418;50.070;8.436;2022-12-19T04:23:10;100922.78;;;-2.00;89.73
40730;BME280;26418;50.070;8.436;2022-12-19T04:25:42;100915.69;;;-1.93;89.26
40730;BME280;26418;50.070;8.436;2022-12-19T04:28:14;100909.13;;;-1.97;88.43
40730;BME280;26418;50.070;8.436;2022-12-19T04:30:41;100896.69;;;-1.96;88.87
40730;BME280;26418;50.070;8.436;2022-12-19T04:33:09;100906.16;;;-1.87;89.02
40730;BME280;26418;50.070;8.436;2022-12-19T04:35:34;100900.41;;;-1.91;88.83
40730;BME280;26418;50.070;8.436;2022-12-19T04:38:00;100909.16;;;-1.90;89.67
40730;BME280;26418;50.070;8.436;2022-12-19T04:40:25;100899.34;;;-1.96;89.64
40730;BME280;26418;50.070;8.436;2022-12-19T04:42:51;100896.13;;;-1.92;89.94
40730;BME280;26418;50.070;8.436;2022-12-19T04:45:16;100890.81;;;-1.92;90.22
40730;BME280;26418;50.070;8.436;2022-12-19T04:47:42;100906.00;;;-1.79;89.46
40730;BME280;26418;50.070;8.436;2022-12-19T04:50:08;100899.84;;;-1.79;88.82
40730;BME280;26418;50.070;8.436;2022-12-19T04:52:33;100893.69;;;-1.86;88.72
40730;BME280;26418;50.070;8.436;2022-12-19T04:54:59;100880.59;;;-1.95;89.07
40730;BME280;26418;50.070;8.436;2022-12-19T04:57:24;100894.47;;;-1.93;89.18
40730;BME280;26418;50.070;8.436;2022-12-19T04:59:49;100893.22;;;-1.97;89.91
40730;BME280;26418;50.070;8.436;2022-12-19T05:02:15;100894.63;;;-2.01;90.15
40730;BME280;26418;50.070;8.436;2022-12-19T05:04:40;100884.97;;;-2.09;90.75
40730;BME280;26418;50.070;8.436;2022-12-19T05:07:05;100898.50;;;-1.97;91.05
40730;BME280;26418;50.070;8.436;2022-12-19T05:09:31;100893.47;;;-1.92;91.38
40730;BME280;26418;50.070;8.436;2022-12-19T05:11:56;100896.56;;;-1.88;91.31
40730;BME280;26418;50.070;8.436;2022-12-19T05:14:21;100888.97;;;-1.91;91.14
40730;BME280;26418;50.070;8.436;2022-12-19T05:16:47;100892.88;;;-1.87;91.44
40730;BME280;26418;50.070;8.436;2022-12-19T05:19:12;100887.00;;;-1.82;91.25
40730;BME280;26418;50.070;8.436;2022-12-19T05:21:39;100884.78;;;-1.79;91.40
40730;BME280;26418;50.070;8.436;2022-12-19T05:24:05;100885.84;;;-1.73;91.27
40730;BME280;26418;50.070;8.436;2022-12-19T05:26:30;100893.22;;;-1.62;91.12
40730;BME280;26418;50.070;8.436;2022-12-19T05:28:55;100888.56;;;-1.60;90.79
40730;BME280;26418;50.070;8.436;2022-12-19T05:31:21;100889.81;;;-1.55;90.54
40730;BME280;26418;50.070;8.436;2022-12-19T05:33:47;100894.72;;;-1.52;90.49
40730;BME280;26418;50.070;8.436;2022-12-19T05:36:13;100874.28;;;-1.59;89.96
40730;BME280;26418;50.070;8.436;2022-12-19T05:38:40;100877.53;;;-1.63;89.83
40730;BME280;26418;50.070;8.436;2022-12-19T05:41:09;100877.91;;;-1.66;90.05
40730;BME280;26418;50.070;8.436;2022-12-19T05:43:35;100878.50;;;-1.71;90.52
40730;BME280;26418;50.070;8.436;2022-12-19T05:46:03;100882.78;;;-1.70;90.18
40730;BME280;26418;50.070;8.436;2022-12-19T05:48:29;100877.53;;;-1.63;90.91
40730;BME280;26418;50.070;8.436;2022-12-19T05:50:54;100868.91;;;-1.72;90.88
40730;BME280;26418;50.070;8.436;2022-12-19T05:53:19;100889.03;;;-1.49;92.92
40730;BME280;26418;50.070;8.436;2022-12-19T05:55:44;100874.09;;;-1.02;97.02
40730;BME280;26418;50.070;8.436;2022-12-19T05:58:10;100880.16;;;-0.19;100.00
40730;BME280;26418;50.070;8.436;2022-12-19T06:00:35;100875.78;;;0.40;100.00
40730;BME280;26418;50.070;8.436;2022-12-19T06:03:01;100882.78;;;0.87;100.00
40730;BME280;26418;50.070;8.436;2022-12-19T06:05:26;100875.72;;;1.06;100.00
40730;BME280;26418;50.070;8.436;2022-12-19T06:07:52;100880.47;;;1.04;100.00
40730;BME280;26418;50.070;8.436;2022-12-19T06:10:17;100874.31;;;0.97;100.00
40730;BME280;26418;50.070;8.436;2022-12-19T06:12:42;100889.66;;;1.08;100.00
40730;BME280;26418;50.070;8.436;2022-12-19T06:15:08;100879.09;;;1.27;100.00
40730;BME280;26418;50.070;8.436;2022-12-19T06:17:34;100891.44;;;1.14;100.00
40730;BME280;26418;50.070;8.436;2022-12-19T06:19:59;100888.13;;;0.80;95.57
40730;BME280;26418;50.070;8.436;2022-12-19T06:22:24;100885.78;;;0.52;93.03
40730;BME280;26418;50.070;8.436;2022-12-19T06:24:50;100886.44;;;0.34;93.02
40730;BME280;26418;50.070;8.436;2022-12-19T06:27:15;100880.94;;;0.22;92.79
40730;BME280;26418;50.070;8.436;2022-12-19T06:29:40;100884.44;;;0.09;92.49
40730;BME280;26418;50.070;8.436;2022-12-19T06:32:06;100887.91;;;-0.11;91.86
40730;BME280;26418;50.070;8.436;2022-12-19T06:34:31;100880.56;;;-0.29;92.07
40730;BME280;26418;50.070;8.436;2022-12-19T06:36:57;100892.00;;;-0.42;92.23
40730;BME280;26418;50.070;8.436;2022-12-19T06:39:22;100896.28;;;-0.54;92.06
40730;BME280;26418;50.070;8.436;2022-12-19T06:41:48;100894.25;;;-0.59;92.71
40730;BME280;26418;50.070;8.436;2022-12-19T06:44:32;100898.72;;;-0.73;92.16
40730;BME280;26418;50.070;8.436;2022-12-19T06:46:57;100885.00;;;-0.83;92.39
40730;BME280;26418;50.070;8.436;2022-12-19T06:49:22;100896.63;;;-0.84;92.25
40730;BME280;26418;50.070;8.436;2022-12-19T06:51:48;100890.28;;;-0.90;91.78
40730;BME280;26418;50.070;8.436;2022-12-19T06:54:14;100880.47;;;-0.96;92.24
40730;BME280;26418;50.070;8.436;2022-12-19T06:56:40;100883.09;;;-1.03;92.65
40730;BME280;26418;50.070;8.436;2022-12-19T06:59:10;100876.72;;;-1.08;93.20
40730;BME280;26418;50.070;8.436;2022-12-19T07:06:53;100867.53;;;-1.13;94.11
40730;BME280;26418;50.070;8.436;2022-12-19T07:09:18;100873.88;;;-1.14;94.64
40730;BME280;26418;50.070;8.436;2022-12-19T07:11:44;100877.38;;;-1.06;94.32
40730;BME280;26418;50.070;8.436;2022-12-19T07:14:09;100872.25;;;-1.08;94.24
40730;BME280;26418;50.070;8.436;2022-12-19T07:16:34;100861.84;;;-1.09;94.75
40730;BME280;26418;50.070;8.436;2022-12-19T07:19:00;100874.50;;;-1.05;94.39
40730;BME280;26418;50.070;8.436;2022-12-19T07:21:25;100871.66;;;-1.03;94.47
40730;BME280;26418;50.070;8.436;2022-12-19T07:23:51;100875.13;;;-1.03;94.00
40730;BME280;26418;50.070;8.436;2022-12-19T07:26:16;100872.25;;;-1.08;94.06
40730;BME280;26418;50.070;8.436;2022-12-19T07:28:42;100873.06;;;-1.14;93.51
40730;BME280;26418;50.070;8.436;2022-12-19T07:31:09;100877.53;;;-1.15;94.00
40730;BME280;26418;50.070;8.436;2022-12-19T07:33:34;100875.94;;;-1.09;94.34
40730;BME280;26418;50.070;8.436;2022-12-19T07:35:59;100878.59;;;-1.09;94.28
40730;BME280;26418;50.070;8.436;2022-12-19T07:38:25;100877.97;;;-1.11;94.50
40730;BME280;26418;50.070;8.436;2022-12-19T07:40:50;100881.09;;;-0.94;96.14
40730;BME280;26418;50.070;8.436;2022-12-19T07:43:15;100872.16;;;-0.46;99.90
40730;BME280;26418;50.070;8.436;2022-12-19T07:45:41;100878.34;;;-0.19;100.00
40730;BME280;26418;50.070;8.436;2022-12-19T07:48:07;100873.81;;;-0.25;100.00
40730;BME280;26418;50.070;8.436;2022-12-19T07:50:33;100884.03;;;-0.28;98.31
40730;BME280;26418;50.070;8.436;2022-12-19T07:52:58;100885.69;;;-0.41;97.28
40730;BME280;26418;50.070;8.436;2022-12-19T07:55:25;100883.22;;;-0.49;96.33
40730;BME280;26418;50.070;8.436;2022-12-19T07:57:50;100874.22;;;-0.55;96.47
40730;BME280;26418;50.070;8.436;2022-12-19T08:00:17;100878.28;;;-0.66;95.39
40730;BME280;26418;50.070;8.436;2022-12-19T08:02:42;100868.88;;;-0.75;94.90
40730;BME280;26418;50.070;8.436;2022-12-19T08:05:08;100878.66;;;-0.75;94.94
40730;BME280;26418;50.070;8.436;2022-12-19T08:07:34;100887.69;;;-0.76;94.28
40730;BME280;26418;50.070;8.436;2022-12-19T08:09:59;100882.13;;;-0.82;94.15
40730;BME280;26418;50.070;8.436;2022-12-19T08:12:24;100875.78;;;-0.87;93.96
40730;BME280;26418;50.070;8.436;2022-12-19T08:14:51;100876.63;;;-0.87;93.74
40730;BME280;26418;50.070;8.436;2022-12-19T08:17:16;100879.06;;;-0.85;93.39
40730;BME280;26418;50.070;8.436;2022-12-19T08:19:41;100876.19;;;-0.90;93.26
40730;BME280;26418;50.070;8.436;2022-12-19T08:22:07;100880.28;;;-0.88;92.93
40730;BME280;26418;50.070;8.436;2022-12-19T08:24:32;100883.16;;;-0.89;93.11
40730;BME280;26418;50.070;8.436;2022-12-19T08:26:57;100883.31;;;-0.91;93.04
40730;BME280;26418;50.070;8.436;2022-12-19T08:29:23;100877.41;;;-0.86;92.86
40730;BME280;26418;50.070;8.436;2022-12-19T08:31:49;100860.44;;;-0.99;92.34
40730;BME280;26418;50.070;8.436;2022-12-19T08:34:14;100867.22;;;-0.89;92.67
40730;BME280;26418;50.070;8.436;2022-12-19T08:36:40;100878.44;;;-0.87;92.85
40730;BME280;26418;50.070;8.436;2022-12-19T08:39:07;100869.44;;;-0.86;92.13
40730;BME280;26418;50.070;8.436;2022-12-19T08:41:32;100876.19;;;-0.90;92.07
40730;BME280;26418;50.070;8.436;2022-12-19T08:43:58;100878.84;;;-0.90;92.68
40730;BME280;26418;50.070;8.436;2022-12-19T08:46:23;100871.31;;;-0.87;92.96
40730;BME280;26418;50.070;8.436;2022-12-19T08:48:49;100862.50;;;-0.87;92.37
40730;BME280;26418;50.070;8.436;2022-12-19T08:51:15;100857.81;;;-0.85;91.78
40730;BME280;26418;50.070;8.436;2022-12-19T08:53:42;100867.63;;;-0.79;91.80
40730;BME280;26418;50.070;8.436;2022-12-19T08:56:19;100847.19;;;-0.85;91.45
40730;BME280;26418;50.070;8.436;2022-12-19T08:58:46;100866.19;;;-0.82;91.46
40730;BME280;26418;50.070;8.436;2022-12-19T09:01:16;100850.66;;;-0.91;91.44
40730;BME280;26418;50.070;8.436;2022-12-19T09:03:46;100860.06;;;-0.89;91.71
40730;BME280;26418;50.070;8.436;2022-12-19T09:06:12;100871.72;;;-0.83;92.33
40730;BME280;26418;50.070;8.436;2022-12-19T09:08:39;100872.94;;;-0.79;92.27
40730;BME280;26418;50.070;8.436;2022-12-19T09:11:07;100862.31;;;-0.79;91.95
40730;BME280;26418;50.070;8.436;2022-12-19T09:13:34;100867.03;;;-0.81;91.90
40730;BME280;26418;50.070;8.436;2022-12-19T09:16:03;100866.44;;;-0.76;91.82
40730;BME280;26418;50.070;8.436;2022-12-19T09:18:29;100845.56;;;-0.80;91.84
40730;BME280;26418;50.070;8.436;2022-12-19T09:20:56;100853.34;;;-0.85;91.56
40730;BME280;26418;50.070;8.436;2022-12-19T09:23:23;100862.53;;;-0.74;91.51
40730;BME280;26418;50.070;8.436;2022-12-19T09:25:52;100864.59;;;-0.69;92.26
40730;BME280;26418;50.070;8.436;2022-12-19T09:28:17;100872.75;;;-0.64;92.22
40730;BME280;26418;50.070;8.436;2022-12-19T09:30:43;100867.69;;;-0.59;92.42
40730;BME280;26418;50.070;8.436;2022-12-19T09:33:09;100867.88;;;-0.54;92.44
40730;BME280;26418;50.070;8.436;2022-12-19T09:35:35;100866.03;;;-0.46;92.57
40730;BME280;26418;50.070;8.436;2022-12-19T09:38:00;100883.03;;;-0.41;92.02
40730;BME280;26418;50.070;8.436;2022-12-19T09:40:42;100859.72;;;-0.45;91.37
40730;BME280;26418;50.070;8.436;2022-12-19T09:48:24;100869.31;;;-0.31;91.36
40730;BME280;26418;50.070;8.436;2022-12-19T09:50:58;100873.19;;;-0.20;91.84
40730;BME280;26418;50.070;8.436;2022-12-19T09:53:30;100867.47;;;-0.17;91.66
40730;BME280;26418;50.070;8.436;2022-12-19T09:55:58;100857.47;;;-0.15;91.31
40730;BME280;26418;50.070;8.436;2022-12-19T10:00:56;100848.88;;;-0.17;91.01
40730;BME280;26418;50.070;8.436;2022-12-19T10:03:40;100856.03;;;-0.18;90.82
40730;BME280;26418;50.070;8.436;2022-12-19T10:08:44;100843.78;;;-0.19;90.98
40730;BME280;26418;50.070;8.436;2022-12-19T10:19:24;100817.19;;;-0.19;89.91
40730;BME280;26418;50.070;8.436;2022-12-19T10:24:53;100811.47;;;-0.29;90.36
40730;BME280;26418;50.070;8.436;2022-12-19T10:30:16;100804.09;;;-0.34;91.15
40730;BME280;26418;50.070;8.436;2022-12-19T10:35:34;100828.00;;;-0.20;91.85
40730;BME280;26418;50.070;8.436;2022-12-19T10:38:34;100821.88;;;-0.21;91.67
40730;BME280;26418;50.070;8.436;2022-12-19T10:41:01;100827.41;;;-0.22;91.85
40730;BME280;26418;50.070;8.436;2022-12-19T10:46:18;100840.50;;;-0.21;92.02
40730;BME280;26418;50.070;8.436;2022-12-19T10:48:47;100832.13;;;-0.18;92.05
40730;BME280;26418;50.070;8.436;2022-12-19T10:51:22;100831.50;;;-0.13;92.05
40730;BME280;26418;50.070;8.436;2022-12-19T10:53:59;100829.44;;;-0.11;91.93
40730;BME280;26418;50.070;8.436;2022-12-19T10:56:28;100820.44;;;-0.10;92.15
40730;BME280;26418;50.070;8.436;2022-12-19T10:58:56;100809.78;;;-0.10;91.97
40730;BME280;26418;50.070;8.436;2022-12-19T11:01:37;100799.38;;;-0.11;92.04
40730;BME280;26418;50.070;8.436;2022-12-19T11:04:32;100795.88;;;-0.12;92.13
40730;BME280;26418;50.070;8.436;2022-12-19T11:09:40;100791.19;;;-0.17;92.46
40730;BME280;26418;50.070;8.436;2022-12-19T11:14:33;100798.56;;;-0.19;92.79
40730;BME280;26418;50.070;8.436;2022-12-19T11:17:00;100790.16;;;-0.16;93.06
40730;BME280;26418;50.070;8.436;2022-12-19T11:19:36;100786.69;;;-0.16;92.75
40730;BME280;26418;50.070;8.436;2022-12-19T11:24:54;100793.63;;;-0.08;93.15
40730;BME280;26418;50.070;8.436;2022-12-19T11:29:55;100780.75;;;-0.05;93.09
40730;BME280;26418;50.070;8.436;2022-12-19T11:35:03;100775.63;;;0.01;92.79
40730;BME280;26418;50.070;8.436;2022-12-19T11:37:42;100760.69;;;-0.07;92.64
40730;BME280;26418;50.070;8.436;2022-12-19T11:40:16;100768.03;;;-0.03;93.28
40730;BME280;26418;50.070;8.436;2022-12-19T11:42:55;100767.63;;;0.01;93.26
40730;BME280;26418;50.070;8.436;2022-12-19T11:45:40;100749.81;;;0.01;93.46
40730;BME280;26418;50.070;8.436;2022-12-19T11:48:35;100760.44;;;0.08;92.79
40730;BME280;26418;50.070;8.436;2022-12-19T11:53:46;100755.16;;;0.01;93.36
40730;BME280;26418;50.070;8.436;2022-12-19T11:56:17;100760.69;;;0.06;93.05
40730;BME280;26418;50.070;8.436;2022-12-19T11:58:48;100760.22;;;0.09;93.48
40730;BME280;26418;50.070;8.436;2022-12-19T12:01:18;100751.22;;;0.10;93.55
40730;BME280;26418;50.070;8.436;2022-12-19T12:04:37;100742.66;;;0.08;93.78
40730;BME280;26418;50.070;8.436;2022-12-19T12:07:00;100753.09;;;0.10;93.81
40730;BME280;26418;50.070;8.436;2022-12-19T12:23:01;100711.63;;;-0.05;94.89
40730;BME280;26418;50.070;8.436;2022-12-19T12:28:42;100722.19;;;0.09;94.54
40730;BME280;26418;50.070;8.436;2022-12-19T12:31:27;100710.75;;;0.08;94.74
40730;BME280;26418;50.070;8.436;2022-12-19T12:39:19;100709.69;;;0.16;96.43
40730;BME280;26418;50.070;8.436;2022-12-19T12:44:40;100692.72;;;0.81;100.00
40730;BME280;26418;50.070;8.436;2022-12-19T12:49:50;100693.66;;;1.19;100.00
40730;BME280;26418;50.070;8.436;2022-12-19T12:52:42;100702.06;;;1.41;100.00
40730;BME280;26418;50.070;8.436;2022-12-19T12:55:32;100709.84;;;1.61;100.00
40730;BME280;26418;50.070;8.436;2022-12-19T12:57:59;100706.03;;;1.76;100.00
40730;BME280;26418;50.070;8.436;2022-12-19T13:00:34;100691.88;;;1.94;100.00
40730;BME280;26418;50.070;8.436;2022-12-19T13:05:36;100693.19;;;1.66;94.39
40730;BME280;26418;50.070;8.436;2022-12-19T13:08:37;100688.31;;;1.44;93.10
40730;BME280;26418;50.070;8.436;2022-12-19T13:17:18;100689.97;;;0.94;93.43
40730;BME280;26418;50.070;8.436;2022-12-19T13:22:40;100688.22;;;0.82;94.02
40730;BME280;26418;50.070;8.436;2022-12-19T13:30:32;100685.50;;;0.88;95.15
40730;BME280;26418;50.070;8.436;2022-12-19T13:40:55;100684.09;;;0.86;93.90
40730;BME280;26418;50.070;8.436;2022-12-19T13:43:38;100658.81;;;0.70;94.24
40730;BME280;26418;50.070;8.436;2022-12-19T13:46:42;100677.78;;;0.80;93.60
40730;BME280;26418;50.070;8.436;2022-12-19T13:51:52;100677.28;;;0.65;94.46
40730;BME280;26418;50.070;8.436;2022-12-19T13:54:32;100696.94;;;0.63;94.82
40730;BME280;26418;50.070;8.436;2022-12-19T13:57:00;100678.78;;;0.54;95.13
40730;BME280;26418;50.070;8.436;2022-12-19T13:59:27;100679.19;;;0.51;95.50
40730;BME280;26418;50.070;8.436;2022-12-19T14:02:06;100660.63;;;0.44;96.00
40730;BME280;26418;50.070;8.436;2022-12-19T14:04:39;100672.91;;;0.45;96.24
40730;BME280;26418;50.070;8.436;2022-12-19T14:09:51;100667.00;;;0.36;96.37
40730;BME280;26418;50.070;8.436;2022-12-19T14:12:30;100685.44;;;0.38;96.88
40730;BME280;26418;50.070;8.436;2022-12-19T14:15:33;100683.16;;;0.41;96.88
40730;BME280;26418;50.070;8.436;2022-12-19T14:18:15;100692.56;;;0.44;96.95
40730;BME280;26418;50.070;8.436;2022-12-19T14:20:42;100675.75;;;0.43;96.90
40730;BME280;26418;50.070;8.436;2022-12-19T14:23:09;100686.63;;;0.42;97.01
40730;BME280;26418;50.070;8.436;2022-12-19T14:25:39;100670.06;;;0.40;97.38
40730;BME280;26418;50.070;8.436;2022-12-19T14:28:20;100668.41;;;0.39;97.31
40730;BME280;26418;50.070;8.436;2022-12-19T14:30:49;100663.72;;;0.41;97.57
40730;BME280;26418;50.070;8.436;2022-12-19T14:33:29;100669.66;;;0.43;97.66
40730;BME280;26418;50.070;8.436;2022-12-19T14:35:56;100667.38;;;0.46;97.71
40730;BME280;26418;50.070;8.436;2022-12-19T14:38:27;100659.41;;;0.40;97.45
40730;BME280;26418;50.070;8.436;2022-12-19T14:40:53;100656.34;;;0.43;97.42
40730;BME280;26418;50.070;8.436;2022-12-19T14:43:24;100661.03;;;0.41;97.40
40730;BME280;26418;50.070;8.436;2022-12-19T14:51:26;100685.78;;;0.48;97.32
40730;BME280;26418;50.070;8.436;2022-12-19T14:56:56;100662.28;;;0.38;97.13
40730;BME280;26418;50.070;8.436;2022-12-19T14:59:32;100659.03;;;0.36;97.52
40730;BME280;26418;50.070;8.436;2022-12-19T15:04:37;100662.41;;;0.82;100.00
40730;BME280;26418;50.070;8.436;2022-12-19T15:07:15;100665.78;;;1.21;100.00
40730;BME280;26418;50.070;8.436;2022-12-19T15:09:53;100668.53;;;1.52;100.00
40730;BME280;26418;50.070;8.436;2022-12-19T15:12:29;100663.25;;;2.01;100.00
40730;BME280;26418;50.070;8.436;2022-12-19T15:15:22;100654.25;;;2.44;100.00
40730;BME280;26418;50.070;8.436;2022-12-19T15:17:51;100653.38;;;2.74;100.00
40730;BME280;26418;50.070;8.436;2022-12-19T15:20:16;100644.59;;;2.97;100.00
40730;BME280;26418;50.070;8.436;2022-12-19T15:22:42;100647.38;;;3.03;100.00
40730;BME280;26418;50.070;8.436;2022-12-19T15:25:15;100639.69;;;2.94;100.00
40730;BME280;26418;50.070;8.436;2022-12-19T15:27:44;100644.22;;;2.82;96.72
40730;BME280;26418;50.070;8.436;2022-12-19T15:30:16;100650.44;;;2.52;93.42
40730;BME280;26418;50.070;8.436;2022-12-19T15:32:42;100632.47;;;2.17;91.25
40730;BME280;26418;50.070;8.436;2022-12-19T15:35:13;100645.31;;;1.89;91.53
40730;BME280;26418;50.070;8.436;2022-12-19T15:37:39;100637.06;;;1.61;91.72
40730;BME280;26418;50.070;8.436;2022-12-19T15:40:06;100639.59;;;1.37;92.45